createdAt,value
2023-11-16T00:01:36.303Z,97366.88
2023-11-16T00:04:03.278Z,97365.47
2023-11-16T00:06:29.969Z,97355.00
2023-11-16T00:08:56.709Z,97353.97
2023-11-16T00:11:23.372Z,97350.81
2023-11-16T00:13:50.116Z,97347.91
2023-11-16T00:16:16.862Z,97343.63
2023-11-16T00:18:45.016Z,97347.22
2023-11-16T00:21:11.759Z,97349.78
2023-11-16T00:23:38.546Z,97352.81
2023-11-16T00:26:05.431Z,97353.16
2023-11-16T00:28:32.192Z,97340.47
2023-11-16T00:30:58.896Z,97347.25
2023-11-16T00:33:25.664Z,97337.50
2023-11-16T00:35:53.737Z,97327.00
2023-11-16T00:38:20.435Z,97315.72
2023-11-16T00:40:47.126Z,97317.03
2023-11-16T00:43:13.911Z,97324.00
2023-11-16T00:45:40.741Z,97319.00
2023-11-16T00:48:07.631Z,97311.34
2023-11-16T00:50:34.340Z,97303.69
2023-11-16T00:53:02.399Z,97301.22
2023-11-16T00:55:29.280Z,97300.41
2023-11-16T00:57:56.030Z,97310.19
2023-11-16T01:00:22.732Z,97313.66
2023-11-16T01:02:49.523Z,97307.34
2023-11-16T01:05:16.241Z,97313.38
2023-11-16T01:07:42.963Z,97305.47
2023-11-16T01:10:11.095Z,97313.03
2023-11-16T01:12:37.871Z,97304.53
2023-11-16T01:15:05.263Z,97299.28
2023-11-16T01:17:32.877Z,97298.94
2023-11-16T01:19:59.583Z,97299.41
2023-11-16T01:22:26.332Z,97292.22
2023-11-16T01:24:53.144Z,97301.50
2023-11-16T01:27:21.412Z,97297.56
2023-11-16T01:29:48.113Z,97290.09
2023-11-16T01:32:14.902Z,97290.31
2023-11-16T01:34:42.755Z,97282.91
2023-11-16T01:37:10.534Z,97280.00
2023-11-16T01:39:37.758Z,97275.56
2023-11-16T01:42:05.009Z,97272.28
2023-11-16T01:44:33.823Z,97280.63
2023-11-16T01:47:00.499Z,97276.00
2023-11-16T01:49:27.284Z,97274.97
2023-11-16T01:51:54.817Z,97273.13
2023-11-16T01:54:21.505Z,97266.84
2023-11-16T01:56:48.252Z,97268.00
2023-11-16T01:59:14.951Z,97263.13
2023-11-16T02:01:43.068Z,97261.25
2023-11-16T02:04:11.138Z,97258.34
2023-11-16T02:06:39.748Z,97251.38
2023-11-16T02:09:06.946Z,97247.09
2023-11-16T02:11:33.677Z,97244.22
2023-11-16T02:14:00.361Z,97238.41
2023-11-16T02:16:27.328Z,97240.81
2023-11-16T02:18:55.377Z,97246.16
2023-11-16T02:21:22.097Z,97239.75
2023-11-16T02:23:50.108Z,97235.94
2023-11-16T02:26:16.822Z,97237.81
2023-11-16T02:28:43.480Z,97234.31
2023-11-16T02:31:10.315Z,97231.78
2023-11-16T02:33:37.001Z,97221.69
2023-11-16T02:36:04.512Z,97220.78
2023-11-16T02:38:31.298Z,97218.19
2023-11-16T02:40:59.319Z,97212.94
2023-11-16T02:43:25.987Z,97212.19
2023-11-16T02:45:52.722Z,97212.53
2023-11-16T02:48:19.535Z,97213.34
2023-11-16T02:50:46.358Z,97206.75
2023-11-16T02:53:13.027Z,97197.13
2023-11-16T02:55:39.709Z,97195.13
2023-11-16T02:58:07.735Z,97185.19
2023-11-16T03:00:34.607Z,97184.94
2023-11-16T03:03:02.028Z,97185.75
2023-11-16T03:05:28.735Z,97191.94
2023-11-16T03:07:55.403Z,97200.25
2023-11-16T03:10:22.141Z,97199.66
2023-11-16T03:12:49.884Z,97197.94
2023-11-16T03:15:17.946Z,97201.81
2023-11-16T03:17:44.677Z,97199.13
2023-11-16T03:20:11.833Z,97187.28
2023-11-16T03:22:38.539Z,97192.84
2023-11-16T03:25:06.387Z,97189.16
2023-11-16T03:27:33.632Z,97177.00
2023-11-16T03:30:00.707Z,97175.28
2023-11-16T03:32:28.749Z,97174.84
2023-11-16T03:34:55.555Z,97172.34
2023-11-16T03:37:22.328Z,97175.22
2023-11-16T03:39:49.068Z,97170.78
2023-11-16T03:42:15.858Z,97167.16
2023-11-16T03:44:42.644Z,97166.25
2023-11-16T03:47:09.342Z,97165.88
2023-11-16T03:49:37.410Z,97154.28
2023-11-16T03:52:04.590Z,97161.38
2023-11-16T03:54:31.377Z,97159.09
2023-11-16T03:56:58.089Z,97170.41
2023-11-16T03:59:24.785Z,97161.31
2023-11-16T04:01:51.576Z,97153.91
2023-11-16T04:04:18.627Z,97142.56
2023-11-16T04:06:46.677Z,97142.34
2023-11-16T04:09:14.700Z,97147.69
2023-11-16T04:11:41.539Z,97150.72
2023-11-16T04:14:08.376Z,97155.00
2023-11-16T04:16:35.147Z,97147.81
2023-11-16T04:19:01.965Z,97153.28
2023-11-16T04:21:28.731Z,97149.75
2023-11-16T04:23:56.818Z,97142.28
2023-11-16T04:26:23.665Z,97137.13
2023-11-16T04:28:50.352Z,97128.91
2023-11-16T04:31:17.050Z,97125.41
2023-11-16T04:33:43.805Z,97110.59
2023-11-16T04:36:14.986Z,97103.66
2023-11-16T04:38:41.698Z,97116.16
2023-11-16T04:41:09.756Z,97121.28
2023-11-16T04:43:36.480Z,97111.88
2023-11-16T04:46:04.251Z,97106.09
2023-11-16T04:48:31.124Z,97104.34
2023-11-16T04:50:57.821Z,97097.50
2023-11-16T04:53:24.527Z,97092.19
2023-11-16T04:55:51.207Z,97090.91
2023-11-16T04:58:19.433Z,97092.13
2023-11-16T05:00:46.178Z,97088.41
2023-11-16T05:03:13.043Z,97087.34
2023-11-16T05:05:39.738Z,97086.63
2023-11-16T05:08:06.432Z,97085.50
2023-11-16T05:10:33.140Z,97077.16
2023-11-16T05:12:59.918Z,97070.78
2023-11-16T05:15:27.957Z,97071.81
2023-11-16T05:17:54.707Z,97072.19
2023-11-16T05:20:21.421Z,97069.28
2023-11-16T05:22:48.082Z,97056.41
2023-11-16T05:25:14.827Z,97062.44
2023-11-16T05:27:41.641Z,97065.53
2023-11-16T05:30:09.144Z,97066.44
2023-11-16T05:32:37.279Z,97060.03
2023-11-16T05:35:04.354Z,97060.41
2023-11-16T05:37:31.101Z,97063.41
2023-11-16T05:39:57.764Z,97058.13
2023-11-16T05:42:24.501Z,97052.34
2023-11-16T05:44:51.185Z,97056.19
2023-11-16T05:47:18.046Z,97047.63
2023-11-16T05:49:46.087Z,97039.03
2023-11-16T05:52:12.832Z,97032.09
2023-11-16T05:54:39.587Z,97023.19
2023-11-16T05:57:06.322Z,97016.47
2023-11-16T05:59:33.040Z,97020.53
2023-11-16T06:01:59.823Z,97029.03
2023-11-16T06:04:26.640Z,97030.78
2023-11-16T06:06:54.815Z,97032.63
2023-11-16T06:09:21.490Z,97036.47
2023-11-16T06:11:48.198Z,97039.25
2023-11-16T06:14:15.241Z,97029.19
2023-11-16T06:16:42.061Z,97025.13
2023-11-16T06:19:08.795Z,97027.63
2023-11-16T06:21:35.542Z,97022.88
2023-11-16T06:24:03.594Z,97029.97
2023-11-16T06:26:30.299Z,97025.31
2023-11-16T06:28:56.944Z,97023.13
2023-11-16T06:31:23.637Z,97029.25
2023-11-16T06:33:50.443Z,97037.59
2023-11-16T06:36:17.198Z,97041.78
2023-11-16T06:38:43.901Z,97035.75
2023-11-16T06:41:12.025Z,97026.03
2023-11-16T06:43:38.685Z,97025.81
2023-11-16T06:46:05.530Z,97036.81
2023-11-16T06:48:32.311Z,97052.59
2023-11-16T06:50:59.010Z,97050.97
2023-11-16T06:53:25.704Z,97039.50
2023-11-16T06:55:52.552Z,97042.50
2023-11-16T06:58:20.718Z,97048.06
2023-11-16T07:00:47.862Z,97043.06
2023-11-16T07:03:14.920Z,97044.00
2023-11-16T07:05:41.780Z,97040.97
2023-11-16T07:08:08.437Z,97039.59
2023-11-16T07:10:35.165Z,97028.00
2023-11-16T07:13:01.912Z,97031.50
2023-11-16T07:15:30.042Z,97028.91
2023-11-16T07:17:56.838Z,97020.38
2023-11-16T07:20:23.638Z,97015.84
2023-11-16T07:22:50.382Z,97019.41
2023-11-16T07:25:17.247Z,97026.84
2023-11-16T07:27:44.017Z,97015.97
2023-11-16T07:30:12.013Z,97015.38
2023-11-16T07:32:40.014Z,97000.78
2023-11-16T07:35:08.326Z,96997.19
2023-11-16T07:37:35.004Z,96997.19
2023-11-16T07:40:04.970Z,96992.44
2023-11-16T07:42:31.862Z,96974.56
2023-11-16T07:44:58.532Z,96952.88
2023-11-16T07:47:25.364Z,96960.19
2023-11-16T07:49:53.344Z,96962.28
2023-11-16T07:52:20.014Z,96947.66
2023-11-16T07:54:47.086Z,96948.59
2023-11-16T07:57:13.963Z,96949.97
2023-11-16T07:59:40.717Z,96968.06
2023-11-16T08:02:07.401Z,96956.59
2023-11-16T08:04:34.266Z,96958.81
2023-11-16T08:07:02.464Z,96949.75
2023-11-16T08:09:29.628Z,96973.28
2023-11-16T08:11:56.383Z,96958.91
2023-11-16T08:14:23.036Z,96962.75
2023-11-16T08:16:49.730Z,96950.81
2023-11-16T08:19:16.676Z,96946.50
2023-11-16T08:21:43.449Z,96937.34
2023-11-16T08:24:11.529Z,96942.22
2023-11-16T08:26:38.199Z,96948.81
2023-11-16T08:29:04.983Z,96966.91
2023-11-16T08:31:31.725Z,96958.00
2023-11-16T08:33:58.435Z,96969.69
2023-11-16T08:36:25.184Z,96974.72
2023-11-16T08:38:51.895Z,96986.06
2023-11-16T08:41:20.295Z,96970.28
2023-11-16T08:43:47.640Z,96961.38
2023-11-16T08:46:14.555Z,96956.28
2023-11-16T08:48:41.341Z,96955.09
2023-11-16T08:51:08.405Z,96964.94
2023-11-16T08:53:35.303Z,96947.91
2023-11-16T08:56:02.151Z,96944.91
2023-11-16T08:58:30.963Z,96911.03
2023-11-16T09:00:58.920Z,96924.34
2023-11-16T09:03:25.712Z,96893.00
2023-11-16T09:05:52.531Z,96880.31
2023-11-16T09:08:19.238Z,96871.03
2023-11-16T09:10:45.974Z,96881.91
2023-11-16T09:13:12.667Z,96861.63
2023-11-16T09:15:40.749Z,96866.81
2023-11-16T09:18:07.536Z,96856.22
2023-11-16T09:20:34.329Z,96845.31
2023-11-16T09:23:01.054Z,96835.03
2023-11-16T09:25:27.963Z,96825.16
2023-11-16T09:27:54.719Z,96820.56
2023-11-16T09:30:22.111Z,96837.53
2023-11-16T09:32:50.175Z,96831.06
2023-11-16T09:35:16.927Z,96814.41
2023-11-16T09:37:43.661Z,96801.72
2023-11-16T09:40:15.280Z,96790.13
2023-11-16T09:42:42.005Z,96772.94
2023-11-16T09:45:09.603Z,96766.00
2023-11-16T09:47:42.157Z,96757.84
2023-11-16T09:50:10.580Z,96742.44
2023-11-16T09:52:37.349Z,96717.25
2023-11-16T09:55:04.680Z,96704.75
2023-11-16T09:57:31.437Z,96693.53
2023-11-16T09:59:58.360Z,96699.97
2023-11-16T10:02:25.192Z,96691.81
2023-11-16T10:04:51.912Z,96675.06
2023-11-16T10:07:20.237Z,96677.06
2023-11-16T10:09:47.196Z,96683.66
2023-11-16T10:12:13.955Z,96688.25
2023-11-16T10:14:40.739Z,96687.91
2023-11-16T10:17:07.471Z,96685.91
2023-11-16T10:19:34.174Z,96681.47
2023-11-16T10:22:00.896Z,96686.94
2023-11-16T10:24:28.974Z,96675.94
2023-11-16T10:26:55.839Z,96660.94
2023-11-16T10:29:22.593Z,96661.66
2023-11-16T10:31:49.336Z,96645.91
2023-11-16T10:34:16.138Z,96632.94
2023-11-16T10:36:43.289Z,96627.44
2023-11-16T10:39:10.077Z,96625.41
2023-11-16T10:41:38.392Z,96615.22
2023-11-16T10:44:05.148Z,96614.50
2023-11-16T10:46:31.861Z,96603.78
2023-11-16T10:48:58.807Z,96592.66
2023-11-16T10:51:26.087Z,96588.88
2023-11-16T10:53:53.400Z,96572.47
2023-11-16T10:56:20.052Z,96570.56
2023-11-16T10:58:48.101Z,96564.50
2023-11-16T11:01:17.587Z,96577.03
2023-11-16T11:03:45.268Z,96575.25
2023-11-16T11:06:16.411Z,96567.19
2023-11-16T11:08:43.165Z,96552.00
2023-11-16T11:11:10.019Z,96546.44
2023-11-16T11:13:36.914Z,96543.53
2023-11-16T11:16:06.798Z,96545.53
2023-11-16T11:18:33.631Z,96539.22
2023-11-16T11:21:06.345Z,96533.41
2023-11-16T11:23:33.123Z,96521.44
2023-11-16T11:26:01.980Z,96516.09
2023-11-16T11:28:28.709Z,96508.38
2023-11-16T11:30:55.931Z,96511.34
2023-11-16T11:33:28.381Z,96507.63
2023-11-16T11:35:55.151Z,96494.00
2023-11-16T11:38:21.998Z,96496.41
2023-11-16T11:40:56.207Z,96503.44
2023-11-16T11:43:23.111Z,96484.19
2023-11-16T11:45:49.837Z,96485.75
2023-11-16T11:48:17.619Z,96478.97
2023-11-16T11:50:45.804Z,96463.94
2023-11-16T11:53:12.629Z,96483.41
2023-11-16T11:55:39.288Z,96497.47
2023-11-16T11:58:06.004Z,96497.09
2023-11-16T12:00:32.729Z,96462.38
2023-11-16T12:02:59.578Z,96455.09
2023-11-16T12:05:26.419Z,96491.38
2023-11-16T12:07:57.750Z,96485.03
2023-11-16T12:10:24.473Z,96480.00
2023-11-16T12:12:51.401Z,96477.13
2023-11-16T12:15:18.313Z,96470.81
2023-11-16T12:17:45.934Z,96453.28
2023-11-16T12:20:12.672Z,96443.94
2023-11-16T12:22:39.562Z,96447.97
2023-11-16T12:25:10.767Z,96453.63
2023-11-16T12:27:38.229Z,96452.59
2023-11-16T12:30:05.833Z,96460.47
2023-11-16T12:32:32.550Z,96457.13
2023-11-16T12:34:59.447Z,96461.78
2023-11-16T12:37:26.137Z,96476.03
2023-11-16T12:39:52.834Z,96472.50
2023-11-16T12:42:20.956Z,96451.13
2023-11-16T12:44:47.746Z,96446.28
2023-11-16T12:47:21.847Z,96435.94
2023-11-16T12:49:49.890Z,96418.88
2023-11-16T12:52:16.560Z,96405.34
2023-11-16T12:54:43.281Z,96401.75
2023-11-16T12:57:09.989Z,96393.44
2023-11-16T12:59:38.047Z,96394.22
2023-11-16T13:02:04.742Z,96369.41
2023-11-16T13:04:31.530Z,96360.16
2023-11-16T13:06:58.397Z,96363.38
2023-11-16T13:09:25.164Z,96353.25
2023-11-16T13:11:51.841Z,96378.47
2023-11-16T13:14:18.568Z,96381.66
2023-11-16T13:16:46.632Z,96380.00
2023-11-16T13:19:13.318Z,96374.16
2023-11-16T13:21:40.067Z,96384.59
2023-11-16T13:24:07.675Z,96384.59
2023-11-16T13:26:34.354Z,96382.19
2023-11-16T13:29:01.021Z,96388.09
2023-11-16T13:31:27.690Z,96379.78
2023-11-16T13:33:55.862Z,96374.41
2023-11-16T13:36:22.588Z,96359.66
2023-11-16T13:38:49.417Z,96351.09
2023-11-16T13:41:16.205Z,96365.03
2023-11-16T13:43:42.906Z,96354.56
2023-11-16T13:46:09.740Z,96345.16
2023-11-16T13:48:36.514Z,96336.34
2023-11-16T13:51:08.084Z,96318.69
2023-11-16T13:53:34.835Z,96313.56
2023-11-16T13:56:01.605Z,96293.25
2023-11-16T13:58:28.371Z,96326.69
2023-11-16T14:00:55.112Z,96306.09
2023-11-16T14:03:22.128Z,96300.19
2023-11-16T14:05:48.842Z,96299.94
2023-11-16T14:08:16.922Z,96293.69
2023-11-16T14:10:43.638Z,96284.66
2023-11-16T14:13:10.426Z,96288.69
2023-11-16T14:15:37.225Z,96264.56
2023-11-16T14:18:04.303Z,96239.41
2023-11-16T14:20:31.086Z,96268.88
2023-11-16T14:22:57.833Z,96268.59
2023-11-16T14:25:30.948Z,96278.50
2023-11-16T14:28:03.761Z,96268.00
2023-11-16T14:30:30.569Z,96256.47
2023-11-16T14:32:57.436Z,96266.91
2023-11-16T14:35:25.746Z,96272.81
2023-11-16T14:37:52.982Z,96282.19
2023-11-16T14:40:19.671Z,96273.56
2023-11-16T14:42:47.816Z,96292.84
2023-11-16T14:45:14.561Z,96266.84
2023-11-16T14:47:41.380Z,96257.44
2023-11-16T14:50:08.614Z,96273.84
2023-11-16T14:52:35.450Z,96285.09
2023-11-16T14:55:02.373Z,96269.00
2023-11-16T14:57:29.352Z,96237.97
2023-11-16T14:59:57.427Z,96270.63
2023-11-16T15:02:24.207Z,96254.59
2023-11-16T15:04:50.918Z,96258.28
2023-11-16T15:07:17.948Z,96236.56
2023-11-16T15:09:44.677Z,96225.53
2023-11-16T15:12:11.434Z,96221.25
2023-11-16T15:14:38.174Z,96238.97
2023-11-16T15:17:06.358Z,96234.16
2023-11-16T15:19:33.067Z,96267.78
2023-11-16T15:21:59.864Z,96232.59
2023-11-16T15:24:26.747Z,96238.78
2023-11-16T15:26:53.593Z,96214.34
2023-11-16T15:29:20.262Z,96234.72
2023-11-16T15:31:47.226Z,96243.00
2023-11-16T15:34:15.414Z,96233.06
2023-11-16T15:36:42.323Z,96213.97
2023-11-16T15:39:09.161Z,96217.66
2023-11-16T15:41:36.101Z,96201.59
2023-11-16T15:44:02.950Z,96201.25
2023-11-16T15:46:29.760Z,96199.84
2023-11-16T15:48:56.592Z,96208.22
2023-11-16T15:51:24.799Z,96194.22
2023-11-16T15:53:51.486Z,96191.81
2023-11-16T15:56:18.243Z,96194.94
2023-11-16T15:58:44.931Z,96202.63
2023-11-16T16:01:11.740Z,96194.81
2023-11-16T16:03:38.635Z,96199.75
2023-11-16T16:06:05.883Z,96179.38
2023-11-16T16:08:33.903Z,96185.88
2023-11-16T16:11:00.591Z,96196.94
2023-11-16T16:13:27.261Z,96199.38
2023-11-16T16:15:54.038Z,96218.97
2023-11-16T16:18:20.723Z,96215.47
2023-11-16T16:20:47.420Z,96212.56
2023-11-16T16:23:14.236Z,96224.28
2023-11-16T16:25:42.302Z,96214.09
2023-11-16T16:28:09.020Z,96219.13
2023-11-16T16:30:35.780Z,96216.22
2023-11-16T16:33:03.618Z,96220.00
2023-11-16T16:35:31.383Z,96235.00
2023-11-16T16:37:58.053Z,96240.06
2023-11-16T16:40:24.732Z,96254.56
2023-11-16T16:42:52.827Z,96240.34
2023-11-16T16:45:19.556Z,96240.53
2023-11-16T16:47:52.986Z,96240.22
2023-11-16T16:50:25.977Z,96258.53
2023-11-16T16:52:52.698Z,96256.13
2023-11-16T16:55:19.451Z,96260.69
2023-11-16T16:57:46.155Z,96291.56
2023-11-16T17:00:14.809Z,96278.13
2023-11-16T17:02:41.512Z,96282.16
2023-11-16T17:05:08.508Z,96299.56
2023-11-16T17:07:35.268Z,96309.75
2023-11-16T17:10:02.224Z,96308.41
2023-11-16T17:12:28.894Z,96284.28
2023-11-16T17:14:55.696Z,96295.56
2023-11-16T17:17:23.815Z,96301.19
2023-11-16T17:19:50.642Z,96311.09
2023-11-16T17:22:17.422Z,96314.88
2023-11-16T17:24:44.249Z,96326.94
2023-11-16T17:27:10.963Z,96321.53
2023-11-16T17:29:37.702Z,96351.88
2023-11-16T17:32:04.927Z,96340.63
2023-11-16T17:34:33.018Z,96352.97
2023-11-16T17:36:59.769Z,96343.03
2023-11-16T17:39:26.481Z,96366.91
2023-11-16T17:41:53.151Z,96370.13
2023-11-16T17:44:20.002Z,96382.47
2023-11-16T17:46:46.819Z,96346.81
2023-11-16T17:49:13.617Z,96365.84
2023-11-16T17:51:41.673Z,96385.41
2023-11-16T17:54:08.454Z,96369.31
2023-11-16T17:56:35.247Z,96365.56
2023-11-16T17:59:02.129Z,96359.38
2023-11-16T18:01:28.908Z,96388.63
2023-11-16T18:03:55.721Z,96369.59
2023-11-16T18:06:22.469Z,96372.50
2023-11-16T18:08:50.530Z,96385.16
2023-11-16T18:11:17.181Z,96374.94
2023-11-16T18:13:43.901Z,96395.06
2023-11-16T18:16:10.649Z,96386.47
2023-11-16T18:18:37.405Z,96378.16
2023-11-16T18:21:04.194Z,96385.13
2023-11-16T18:23:30.919Z,96406.31
2023-11-16T18:25:58.887Z,96390.19
2023-11-16T18:28:25.631Z,96399.06
2023-11-16T18:30:52.396Z,96418.66
2023-11-16T18:33:19.485Z,96415.97
2023-11-16T18:35:46.249Z,96413.84
2023-11-16T18:38:12.940Z,96435.59
2023-11-16T18:40:39.754Z,96427.25
2023-11-16T18:43:09.283Z,96396.13
2023-11-16T18:45:36.098Z,96437.97
2023-11-16T18:48:02.820Z,96439.56
2023-11-16T18:50:29.532Z,96447.91
2023-11-16T18:52:56.178Z,96445.22
2023-11-16T18:55:22.959Z,96440.13
2023-11-16T18:57:49.719Z,96456.75
2023-11-16T19:00:18.350Z,96468.78
2023-11-16T19:02:45.103Z,96450.84
2023-11-16T19:05:11.882Z,96442.00
2023-11-16T19:07:38.568Z,96445.25
2023-11-16T19:10:06.113Z,96445.75
2023-11-16T19:12:36.909Z,96444.41
2023-11-16T19:15:04.144Z,96459.41
2023-11-16T19:17:32.278Z,96453.22
2023-11-16T19:19:59.022Z,96459.19
2023-11-16T19:22:25.713Z,96471.00
2023-11-16T19:24:52.450Z,96462.41
2023-11-16T19:27:19.263Z,96471.78
2023-11-16T19:29:45.970Z,96477.69
2023-11-16T19:32:12.649Z,96483.31
2023-11-16T19:34:40.693Z,96493.78
2023-11-16T19:37:07.468Z,96490.56
2023-11-16T19:39:40.556Z,96499.16
2023-11-16T19:42:12.041Z,96492.19
2023-11-16T19:44:38.941Z,96512.28
2023-11-16T19:47:06.203Z,96528.91
2023-11-16T19:49:32.902Z,96538.81
2023-11-16T19:52:00.960Z,96567.19
2023-11-16T19:54:27.630Z,96538.72
2023-11-16T19:56:54.459Z,96541.41
2023-11-16T19:59:21.328Z,96541.94
2023-11-16T20:01:48.211Z,96556.16
2023-11-16T20:04:15.025Z,96569.19
2023-11-16T20:06:41.827Z,96535.22
2023-11-16T20:09:11.458Z,96542.16
2023-11-16T20:11:39.796Z,96558.25
2023-11-16T20:14:06.452Z,96545.72
2023-11-16T20:16:33.279Z,96552.69
2023-11-16T20:18:59.999Z,96558.59
2023-11-16T20:21:26.847Z,96557.53
2023-11-16T20:23:53.548Z,96561.53
2023-11-16T20:26:23.790Z,96570.72
2023-11-16T20:28:50.463Z,96576.06
2023-11-16T20:31:17.187Z,96585.53
2023-11-16T20:33:44.033Z,96593.53
2023-11-16T20:36:10.775Z,96573.91
2023-11-16T20:38:37.681Z,96576.53
2023-11-16T20:41:04.712Z,96587.03
2023-11-16T20:43:32.777Z,96600.50
2023-11-16T20:45:59.526Z,96603.97
2023-11-16T20:48:26.216Z,96623.38
2023-11-16T20:50:53.167Z,96619.34
2023-11-16T20:53:19.849Z,96629.31
2023-11-16T20:55:46.606Z,96631.88
2023-11-16T20:58:13.450Z,96666.38
2023-11-16T21:00:41.650Z,96635.41
2023-11-16T21:03:08.507Z,96651.75
2023-11-16T21:05:35.278Z,96646.16
2023-11-16T21:08:01.930Z,96672.88
2023-11-16T21:10:28.665Z,96655.72
2023-11-16T21:12:55.342Z,96664.84
2023-11-16T21:15:22.114Z,96654.72
2023-11-16T21:17:50.127Z,96696.69
2023-11-16T21:20:16.901Z,96679.47
2023-11-16T21:22:43.562Z,96689.91
2023-11-16T21:25:10.683Z,96696.88
2023-11-16T21:27:37.719Z,96691.13
2023-11-16T21:30:06.395Z,96731.56
2023-11-16T21:32:33.378Z,96708.97
2023-11-16T21:35:01.526Z,96710.13
2023-11-16T21:37:28.354Z,96738.69
2023-11-16T21:39:55.130Z,96738.97
2023-11-16T21:42:21.976Z,96769.50
2023-11-16T21:44:48.722Z,96742.00
2023-11-16T21:47:15.372Z,96747.06
2023-11-16T21:49:42.124Z,96758.31
2023-11-16T21:52:10.165Z,96763.47
2023-11-16T21:54:36.971Z,96786.06
2023-11-16T21:57:04.103Z,96789.84
2023-11-16T21:59:30.821Z,96796.63
2023-11-16T22:01:57.668Z,96814.09
2023-11-16T22:04:24.429Z,96806.56
2023-11-16T22:06:51.142Z,96813.91
2023-11-16T22:09:19.191Z,96811.97
2023-11-16T22:11:45.927Z,96823.75
2023-11-16T22:14:12.775Z,96849.78
2023-11-16T22:16:39.677Z,96836.78
2023-11-16T22:19:06.645Z,96831.38
2023-11-16T22:21:33.523Z,96831.59
2023-11-16T22:24:00.215Z,96835.69
2023-11-16T22:26:28.198Z,96846.53
2023-11-16T22:28:54.911Z,96819.19
2023-11-16T22:31:21.583Z,96823.88
2023-11-16T22:33:48.344Z,96868.78
2023-11-16T22:36:15.006Z,96847.19
2023-11-16T22:38:41.694Z,96855.84
2023-11-16T22:41:08.411Z,96831.91
2023-11-16T22:43:36.485Z,96856.28
2023-11-16T22:46:03.268Z,96879.84
2023-11-16T22:48:30.068Z,96854.63
2023-11-16T22:50:56.788Z,96863.13
2023-11-16T22:53:23.471Z,96888.63
2023-11-16T22:55:50.132Z,96871.16
2023-11-16T22:58:16.842Z,96876.97
2023-11-16T23:00:44.924Z,96880.69
2023-11-16T23:03:11.688Z,96874.38
2023-11-16T23:05:38.444Z,96885.44
2023-11-16T23:08:05.506Z,96870.47
2023-11-16T23:10:32.368Z,96873.22
2023-11-16T23:12:59.060Z,96961.09
2023-11-16T23:15:25.818Z,96895.53
2023-11-16T23:17:53.919Z,96913.84
2023-11-16T23:20:20.676Z,96899.66
2023-11-16T23:22:47.391Z,96932.16
2023-11-16T23:25:14.312Z,96924.44
2023-11-16T23:27:41.054Z,96885.28
2023-11-16T23:30:08.747Z,96897.13
2023-11-16T23:32:35.446Z,96900.66
2023-11-16T23:35:03.781Z,96906.56
2023-11-16T23:37:30.471Z,96910.25
2023-11-16T23:39:57.276Z,96909.00
2023-11-16T23:42:24.057Z,96910.50
2023-11-16T23:44:50.816Z,96910.94
2023-11-16T23:47:17.486Z,96903.03
2023-11-16T23:49:44.233Z,96919.31
2023-11-16T23:52:12.240Z,96913.94
2023-11-16T23:54:38.948Z,96919.56
2023-11-16T23:57:05.594Z,96925.25
2023-11-16T23:59:32.306Z,96936.69
